createdAt,value
2023-04-15T00:00:15.668Z,6.05
2023-04-15T00:01:15.661Z,6.04
2023-04-15T00:02:15.743Z,6.11
2023-04-15T00:03:15.806Z,6.16
2023-04-15T00:04:15.703Z,6.16
2023-04-15T00:05:15.638Z,6.17
2023-04-15T00:06:15.641Z,6.24
2023-04-15T00:07:15.642Z,6.27
2023-04-15T00:08:15.669Z,6.28
2023-04-15T00:09:15.643Z,6.30
2023-04-15T00:10:15.620Z,6.20
2023-04-15T00:11:15.609Z,6.31
2023-04-15T00:12:15.615Z,6.28
2023-04-15T00:13:15.608Z,6.17
2023-04-15T00:14:15.596Z,6.14
2023-04-15T00:15:15.598Z,6.14
2023-04-15T00:16:15.642Z,6.17
2023-04-15T00:17:15.580Z,6.16
2023-04-15T00:18:15.578Z,6.11
2023-04-15T00:19:15.577Z,6.04
2023-04-15T00:20:15.568Z,6.01
2023-04-15T00:21:15.562Z,5.94
2023-04-15T00:22:15.562Z,5.97
2023-04-15T00:23:15.552Z,5.94
2023-04-15T00:24:15.546Z,5.91
2023-04-15T00:25:15.571Z,5.93
2023-04-15T00:26:15.535Z,5.99
2023-04-15T00:27:15.529Z,5.90
2023-04-15T00:28:15.557Z,5.84
2023-04-15T00:29:15.519Z,5.93
2023-04-15T00:30:15.514Z,5.89
2023-04-15T00:31:15.584Z,5.87
2023-04-15T00:32:15.506Z,5.87
2023-04-15T00:33:15.506Z,5.84
2023-04-15T00:34:15.503Z,5.80
2023-04-15T00:35:15.498Z,5.82
2023-04-15T00:36:15.495Z,5.79
2023-04-15T00:37:15.476Z,5.73
2023-04-15T00:38:15.576Z,5.71
2023-04-15T00:39:15.473Z,5.66
2023-04-15T00:40:15.466Z,5.73
2023-04-15T00:41:15.476Z,5.57
2023-04-15T00:42:15.459Z,5.64
2023-04-15T00:43:15.446Z,5.62
2023-04-15T00:44:15.447Z,5.61
2023-04-15T00:45:15.441Z,5.65
2023-04-15T00:46:15.468Z,5.62
2023-04-15T00:47:15.427Z,5.62
2023-04-15T00:48:15.775Z,5.72
2023-04-15T00:49:15.416Z,5.69
2023-04-15T00:50:15.413Z,5.73
2023-04-15T00:51:15.406Z,5.75
2023-04-15T00:52:15.402Z,5.75
2023-04-15T00:53:15.396Z,5.72
2023-04-15T00:54:15.393Z,5.71
2023-04-15T00:55:15.386Z,5.69
2023-04-15T00:56:15.398Z,5.76
2023-04-15T00:57:15.392Z,5.76
2023-04-15T00:58:15.376Z,5.80
2023-04-15T00:59:15.368Z,5.82
2023-04-15T01:00:15.384Z,5.80
2023-04-15T01:01:15.366Z,5.72
2023-04-15T01:02:15.460Z,5.75
2023-04-15T01:03:15.551Z,5.80
2023-04-15T01:04:15.467Z,5.76
2023-04-15T01:05:15.336Z,5.87
2023-04-15T01:06:15.339Z,5.87
2023-04-15T01:07:15.321Z,5.83
2023-04-15T01:08:15.322Z,5.89
2023-04-15T01:09:15.318Z,5.86
2023-04-15T01:10:15.320Z,5.82
2023-04-15T01:11:15.347Z,5.84
2023-04-15T01:12:15.302Z,5.84
2023-04-15T01:13:15.308Z,5.83
2023-04-15T01:14:15.289Z,5.80
2023-04-15T01:15:15.290Z,5.76
2023-04-15T01:16:15.382Z,5.75
2023-04-15T01:17:15.270Z,5.71
2023-04-15T01:18:15.272Z,5.72
2023-04-15T01:19:15.261Z,5.69
2023-04-15T01:20:15.267Z,5.72
2023-04-15T01:21:15.269Z,5.72
2023-04-15T01:22:15.271Z,5.68
2023-04-15T01:23:15.237Z,5.71
2023-04-15T01:24:15.240Z,5.68
2023-04-15T01:25:15.230Z,5.57
2023-04-15T01:26:15.223Z,5.57
2023-04-15T01:27:15.226Z,5.54
2023-04-15T01:28:15.216Z,5.54
2023-04-15T01:29:15.225Z,5.48
2023-04-15T01:30:15.207Z,5.44
2023-04-15T01:31:15.212Z,5.44
2023-04-15T01:32:15.192Z,5.50
2023-04-15T01:33:15.195Z,5.43
2023-04-15T01:34:15.188Z,5.30
2023-04-15T01:35:15.184Z,5.32
2023-04-15T01:36:15.175Z,5.32
2023-04-15T01:37:15.164Z,5.20
2023-04-15T01:38:15.163Z,5.14
2023-04-15T01:39:15.156Z,5.28
2023-04-15T01:40:15.150Z,5.21
2023-04-15T01:41:15.150Z,5.28
2023-04-15T01:42:15.143Z,5.25
2023-04-15T01:43:15.133Z,5.15
2023-04-15T01:44:15.143Z,5.15
2023-04-15T01:45:15.138Z,5.28
2023-04-15T01:46:15.147Z,5.20
2023-04-15T01:47:15.123Z,5.25
2023-04-15T01:48:15.478Z,5.21
2023-04-15T01:49:15.111Z,5.28
2023-04-15T01:50:15.102Z,5.20
2023-04-15T01:51:15.100Z,5.20
2023-04-15T01:52:15.090Z,5.28
2023-04-15T01:53:15.083Z,5.18
2023-04-15T01:54:15.080Z,5.28
2023-04-15T01:55:15.072Z,5.26
2023-04-15T01:56:16.511Z,5.23
2023-04-15T01:57:15.063Z,5.07
2023-04-15T01:58:15.099Z,5.04
2023-04-15T01:59:15.055Z,4.92
2023-04-15T02:00:15.045Z,4.89
2023-04-15T02:01:15.115Z,4.87
2023-04-15T02:02:15.063Z,4.99
2023-04-15T02:03:15.108Z,4.90
2023-04-15T02:04:15.032Z,4.97
2023-04-15T02:05:15.026Z,5.04
2023-04-15T02:06:15.025Z,5.10
2023-04-15T02:07:15.007Z,5.08
2023-04-15T02:08:15.008Z,5.11
2023-04-15T02:09:14.996Z,5.14
2023-04-15T02:10:14.992Z,5.12
2023-04-15T02:11:14.991Z,5.14
2023-04-15T02:12:14.995Z,5.15
2023-04-15T02:13:14.975Z,5.08
2023-04-15T02:14:14.973Z,5.08
2023-04-15T02:15:14.965Z,5.02
2023-04-15T02:16:14.992Z,5.04
2023-04-15T02:17:14.979Z,4.97
2023-04-15T02:18:14.948Z,4.93
2023-04-15T02:19:14.944Z,4.87
2023-04-15T02:20:14.942Z,4.99
2023-04-15T02:21:14.958Z,4.92
2023-04-15T02:22:14.935Z,4.89
2023-04-15T02:23:14.920Z,4.87
2023-04-15T02:24:14.919Z,4.90
2023-04-15T02:25:14.917Z,4.86
2023-04-15T02:26:14.912Z,4.74
2023-04-15T02:27:14.902Z,4.68
2023-04-15T02:28:14.894Z,4.68
2023-04-15T02:29:14.889Z,4.70
2023-04-15T02:30:14.883Z,4.59
2023-04-15T02:31:14.932Z,4.53
2023-04-15T02:32:14.884Z,4.56
2023-04-15T02:33:14.887Z,4.49
2023-04-15T02:34:14.881Z,4.52
2023-04-15T02:35:14.861Z,4.49
2023-04-15T02:36:14.859Z,4.45
2023-04-15T02:37:14.855Z,4.48
2023-04-15T02:38:14.840Z,4.48
2023-04-15T02:39:14.834Z,4.42
2023-04-15T02:40:14.855Z,4.45
2023-04-15T02:41:14.828Z,4.44
2023-04-15T02:42:14.828Z,4.48
2023-04-15T02:43:14.812Z,4.50
2023-04-15T02:44:14.832Z,4.42
2023-04-15T02:45:14.804Z,4.49
2023-04-15T02:46:15.070Z,4.42
2023-04-15T02:47:14.789Z,4.48
2023-04-15T02:48:14.785Z,4.48
2023-04-15T02:49:14.796Z,4.59
2023-04-15T02:50:14.776Z,4.56
2023-04-15T02:51:14.769Z,4.71
2023-04-15T02:52:14.762Z,4.66
2023-04-15T02:53:14.958Z,4.56
2023-04-15T02:54:14.754Z,4.59
2023-04-15T02:55:14.764Z,4.62
2023-04-15T02:56:14.753Z,4.55
2023-04-15T02:57:14.735Z,4.52
2023-04-15T02:58:14.727Z,4.48
2023-04-15T02:59:14.718Z,4.45
2023-04-15T03:00:14.716Z,4.50
2023-04-15T03:01:14.885Z,4.53
2023-04-15T03:02:14.769Z,4.52
2023-04-15T03:03:14.831Z,4.53
2023-04-15T03:04:14.926Z,4.56
2023-04-15T03:05:14.715Z,4.53
2023-04-15T03:06:14.683Z,4.59
2023-04-15T03:07:14.678Z,4.59
2023-04-15T03:08:14.671Z,4.68
2023-04-15T03:09:14.663Z,4.62
2023-04-15T03:10:14.660Z,4.56
2023-04-15T03:11:14.656Z,4.56
2023-04-15T03:12:14.651Z,4.59
2023-04-15T03:13:14.641Z,4.55
2023-04-15T03:14:14.642Z,4.63
2023-04-15T03:15:14.638Z,4.56
2023-04-15T03:16:14.740Z,4.67
2023-04-15T03:17:14.620Z,4.71
2023-04-15T03:18:14.620Z,4.70
2023-04-15T03:19:14.619Z,4.68
2023-04-15T03:20:14.670Z,4.68
2023-04-15T03:22:14.607Z,4.87
2023-04-15T03:23:14.586Z,4.86
2023-04-15T03:24:14.574Z,4.80
2023-04-15T03:25:14.568Z,4.77
2023-04-15T03:26:14.561Z,4.86
2023-04-15T03:27:14.563Z,4.87
2023-04-15T03:28:14.554Z,4.73
2023-04-15T03:29:14.547Z,4.70
2023-04-15T03:30:14.541Z,4.70
2023-04-15T03:31:14.574Z,4.70
2023-04-15T03:32:14.530Z,4.58
2023-04-15T03:33:14.535Z,4.59
2023-04-15T03:34:14.519Z,4.53
2023-04-15T03:35:14.516Z,4.60
2023-04-15T03:36:14.512Z,4.56
2023-04-15T03:37:14.502Z,4.55
2023-04-15T03:38:14.516Z,4.48
2023-04-15T03:39:14.493Z,4.50
2023-04-15T03:40:14.502Z,4.45
2023-04-15T03:41:14.502Z,4.49
2023-04-15T03:42:14.477Z,4.49
2023-04-15T03:43:14.481Z,4.48
2023-04-15T03:44:14.465Z,4.41
2023-04-15T03:45:14.459Z,4.50
2023-04-15T03:46:14.485Z,4.44
2023-04-15T03:47:14.456Z,4.48
2023-04-15T03:48:17.454Z,4.48
2023-04-15T03:49:14.436Z,4.48
2023-04-15T03:50:14.427Z,4.50
2023-04-15T03:51:14.428Z,4.55
2023-04-15T03:52:14.433Z,4.59
2023-04-15T03:53:14.820Z,4.59
2023-04-15T03:54:14.431Z,4.58
2023-04-15T03:55:14.406Z,4.50
2023-04-15T03:56:14.405Z,4.48
2023-04-15T03:57:14.416Z,4.38
2023-04-15T03:58:14.397Z,4.37
2023-04-15T03:59:14.381Z,4.38
2023-04-15T04:00:14.383Z,4.38
2023-04-15T04:01:14.368Z,4.40
2023-04-15T04:02:14.426Z,4.42
2023-04-15T04:03:14.540Z,4.50
2023-04-15T04:04:14.514Z,4.48
2023-04-15T04:05:14.347Z,4.53
2023-04-15T04:06:14.335Z,4.52
2023-04-15T04:07:14.332Z,4.55
2023-04-15T04:08:14.326Z,4.52
2023-04-15T04:09:14.318Z,4.49
2023-04-15T04:10:14.331Z,4.41
2023-04-15T04:11:14.314Z,4.40
2023-04-15T04:12:14.305Z,4.38
2023-04-15T04:13:14.300Z,4.37
2023-04-15T04:14:14.289Z,4.41
2023-04-15T04:15:14.323Z,4.37
2023-04-15T04:16:14.393Z,4.37
2023-04-15T04:17:14.356Z,4.38
2023-04-15T04:18:14.269Z,4.40
2023-04-15T04:19:14.263Z,4.35
2023-04-15T04:20:14.261Z,4.42
2023-04-15T04:21:14.257Z,4.48
2023-04-15T04:22:14.243Z,4.59
2023-04-15T04:23:14.240Z,4.56
2023-04-15T04:24:14.241Z,4.66
2023-04-15T04:25:14.222Z,4.71
2023-04-15T04:26:14.243Z,4.89
2023-04-15T04:27:14.223Z,4.84
2023-04-15T04:28:14.211Z,4.87
2023-04-15T04:29:14.210Z,4.97
2023-04-15T04:30:14.202Z,4.99
2023-04-15T04:31:14.195Z,5.08
2023-04-15T04:32:14.228Z,5.07
2023-04-15T04:33:14.178Z,5.23
2023-04-15T04:34:14.177Z,5.20
2023-04-15T04:35:14.175Z,5.21
2023-04-15T04:36:14.166Z,5.28
2023-04-15T04:37:14.154Z,5.32
2023-04-15T04:38:14.156Z,5.35
2023-04-15T04:39:14.150Z,5.28
2023-04-15T04:40:14.143Z,5.30
2023-04-15T04:41:14.141Z,5.20
2023-04-15T04:42:14.148Z,5.20
2023-04-15T04:43:14.129Z,5.28
2023-04-15T04:44:14.131Z,5.26
2023-04-15T04:45:14.153Z,5.33
2023-04-15T04:46:14.161Z,5.35
2023-04-15T04:47:14.153Z,5.30
2023-04-15T04:48:14.102Z,5.35
2023-04-15T04:49:14.085Z,5.43
2023-04-15T04:50:14.083Z,5.39
2023-04-15T04:51:14.075Z,5.54
2023-04-15T04:52:14.072Z,5.57
2023-04-15T04:53:14.074Z,5.48
2023-04-15T04:54:14.062Z,5.62
2023-04-15T04:55:14.055Z,5.50
2023-04-15T04:56:14.058Z,5.65
2023-04-15T04:57:14.043Z,5.57
2023-04-15T04:58:14.068Z,5.54
2023-04-15T04:59:14.028Z,5.68
2023-04-15T05:00:14.043Z,5.73
2023-04-15T05:01:14.034Z,5.80
2023-04-15T05:02:14.080Z,5.80
2023-04-15T05:03:14.126Z,5.83
2023-04-15T05:04:14.116Z,5.91
2023-04-15T05:05:14.008Z,5.89
2023-04-15T05:06:13.988Z,5.84
2023-04-15T05:07:13.983Z,6.01
2023-04-15T05:08:13.980Z,6.02
2023-04-15T05:09:13.979Z,5.97
2023-04-15T05:10:13.971Z,6.04
2023-04-15T05:11:13.962Z,6.04
2023-04-15T05:12:13.959Z,5.97
2023-04-15T05:13:13.949Z,5.99
2023-04-15T05:14:13.968Z,6.05
2023-04-15T05:15:13.939Z,6.04
2023-04-15T05:16:13.963Z,6.05
2023-04-15T05:17:13.934Z,6.11
2023-04-15T05:18:13.933Z,6.16
2023-04-15T05:19:13.926Z,6.14
2023-04-15T05:20:13.923Z,6.09
2023-04-15T05:21:13.915Z,6.17
2023-04-15T05:22:13.902Z,6.09
2023-04-15T05:23:13.905Z,6.07
2023-04-15T05:24:13.897Z,6.09
2023-04-15T05:25:13.895Z,6.11
2023-04-15T05:26:13.885Z,6.14
2023-04-15T05:27:13.880Z,6.16
2023-04-15T05:28:13.873Z,6.08
2023-04-15T05:29:13.868Z,6.14
2023-04-15T05:30:13.946Z,6.11
2023-04-15T05:31:13.880Z,6.12
2023-04-15T05:32:13.854Z,6.09
2023-04-15T05:33:13.844Z,6.11
2023-04-15T05:34:13.844Z,6.11
2023-04-15T05:35:13.841Z,6.08
2023-04-15T05:36:13.853Z,6.22
2023-04-15T05:37:13.835Z,6.22
2023-04-15T05:38:13.833Z,6.27
2023-04-15T05:39:13.814Z,6.22
2023-04-15T05:40:13.808Z,6.35
2023-04-15T05:41:13.804Z,6.36
2023-04-15T05:42:13.796Z,6.41
2023-04-15T05:43:13.805Z,6.49
2023-04-15T05:44:13.788Z,6.46
2023-04-15T05:45:13.778Z,6.44
2023-04-15T05:46:13.808Z,6.45
2023-04-15T05:47:13.766Z,6.54
2023-04-15T05:48:13.768Z,6.60
2023-04-15T05:49:13.757Z,6.67
2023-04-15T05:50:13.755Z,6.70
2023-04-15T05:51:13.746Z,6.75
2023-04-15T05:52:13.747Z,6.75
2023-04-15T05:53:13.733Z,6.75
2023-04-15T05:54:13.736Z,6.81
2023-04-15T05:55:13.726Z,6.81
2023-04-15T05:56:13.720Z,6.88
2023-04-15T05:57:13.718Z,6.79
2023-04-15T05:58:13.726Z,6.93
2023-04-15T05:59:13.723Z,6.84
2023-04-15T06:00:13.700Z,7.00
2023-04-15T06:01:13.695Z,7.00
2023-04-15T06:02:13.752Z,7.02
2023-04-15T06:03:13.772Z,7.10
2023-04-15T06:04:13.777Z,7.05
2023-04-15T06:05:13.679Z,7.06
2023-04-15T06:06:13.672Z,7.20
2023-04-15T06:07:13.667Z,7.21
2023-04-15T06:08:13.662Z,7.15
2023-04-15T06:09:13.651Z,7.24
2023-04-15T06:10:13.658Z,7.21
2023-04-15T06:11:13.643Z,7.24
2023-04-15T06:12:13.639Z,7.28
2023-04-15T06:13:13.643Z,7.29
2023-04-15T06:14:13.627Z,7.42
2023-04-15T06:15:13.632Z,7.36
2023-04-15T06:16:13.716Z,7.38
2023-04-15T06:17:13.609Z,7.39
2023-04-15T06:18:13.626Z,7.51
2023-04-15T06:19:13.599Z,7.47
2023-04-15T06:20:13.595Z,7.47
2023-04-15T06:21:13.589Z,7.51
2023-04-15T06:22:13.591Z,7.53
2023-04-15T06:23:13.586Z,7.61
2023-04-15T06:24:13.572Z,7.56
2023-04-15T06:25:13.566Z,7.61
2023-04-15T06:26:13.566Z,7.58
2023-04-15T06:27:13.563Z,7.72
2023-04-15T06:28:13.588Z,7.72
2023-04-15T06:29:13.546Z,7.70
2023-04-15T06:30:13.541Z,7.66
2023-04-15T06:31:13.560Z,7.79
2023-04-15T06:32:13.551Z,7.82
2023-04-15T06:33:13.537Z,8.00
2023-04-15T06:34:13.556Z,7.90
2023-04-15T06:35:13.519Z,7.97
2023-04-15T06:36:13.514Z,8.01
2023-04-15T06:37:13.507Z,8.01
2023-04-15T06:38:13.500Z,8.13
2023-04-15T06:39:13.494Z,8.20
2023-04-15T06:40:13.512Z,8.24
2023-04-15T06:41:13.480Z,8.26
2023-04-15T06:42:13.482Z,8.36
2023-04-15T06:43:13.474Z,8.36
2023-04-15T06:44:13.472Z,8.42
2023-04-15T06:45:13.458Z,8.46
2023-04-15T06:46:13.548Z,8.56
2023-04-15T06:47:13.452Z,8.52
2023-04-15T06:48:13.456Z,8.51
2023-04-15T06:49:13.446Z,8.61
2023-04-15T06:50:13.471Z,8.64
2023-04-15T06:51:13.437Z,8.73
2023-04-15T06:52:13.440Z,8.78
2023-04-15T06:53:13.422Z,8.74
2023-04-15T06:54:13.622Z,8.74
2023-04-15T06:55:13.415Z,8.84
2023-04-15T06:56:13.453Z,8.82
2023-04-15T06:57:13.402Z,8.87
2023-04-15T06:58:13.406Z,8.92
2023-04-15T06:59:13.394Z,8.92
2023-04-15T07:00:13.390Z,8.95
2023-04-15T07:01:13.398Z,8.97
2023-04-15T07:02:13.408Z,8.95
2023-04-15T07:03:13.399Z,9.02
2023-04-15T07:04:13.461Z,9.08
2023-04-15T07:05:13.364Z,9.08
2023-04-15T07:06:13.382Z,9.10
2023-04-15T07:07:13.356Z,9.21
2023-04-15T07:08:13.374Z,9.22
2023-04-15T07:09:13.350Z,9.26
2023-04-15T07:10:13.344Z,9.26
2023-04-15T07:11:13.337Z,9.26
2023-04-15T07:12:13.336Z,9.29
2023-04-15T07:13:13.335Z,9.34
2023-04-15T07:14:13.335Z,9.31
2023-04-15T07:15:13.339Z,9.31
2023-04-15T07:16:13.361Z,9.34
2023-04-15T07:17:13.477Z,9.46
2023-04-15T07:18:13.306Z,9.46
2023-04-15T07:19:13.304Z,9.43
2023-04-15T07:20:13.314Z,9.44
2023-04-15T07:21:13.306Z,9.47
2023-04-15T07:22:13.303Z,9.47
2023-04-15T07:23:13.291Z,9.50
2023-04-15T07:24:13.278Z,9.59
2023-04-15T07:25:13.285Z,9.58
2023-04-15T07:26:13.276Z,9.65
2023-04-15T07:27:13.272Z,9.54
2023-04-15T07:28:13.278Z,9.61
2023-04-15T07:29:13.257Z,9.68
2023-04-15T07:30:13.249Z,9.65
2023-04-15T07:31:13.270Z,9.66
2023-04-15T07:32:13.253Z,9.74
2023-04-15T07:33:13.233Z,9.77
2023-04-15T07:34:13.234Z,9.76
2023-04-15T07:35:13.229Z,9.87
2023-04-15T07:36:13.229Z,9.82
2023-04-15T07:37:13.214Z,9.94
2023-04-15T07:38:13.254Z,9.86
2023-04-15T07:39:13.210Z,9.97
2023-04-15T07:40:13.297Z,9.95
2023-04-15T07:41:13.203Z,10.04
2023-04-15T07:42:13.202Z,10.01
2023-04-15T07:43:13.210Z,10.12
2023-04-15T07:44:13.205Z,10.04
2023-04-15T07:45:13.190Z,10.09
2023-04-15T07:46:13.234Z,10.09
2023-04-15T07:47:13.180Z,10.02
2023-04-15T07:48:13.183Z,10.12
2023-04-15T07:49:13.167Z,10.10
2023-04-15T07:50:13.172Z,10.13
2023-04-15T07:51:13.230Z,10.09
2023-04-15T07:52:13.155Z,10.09
2023-04-15T07:53:13.148Z,10.01
2023-04-15T07:54:13.318Z,10.04
2023-04-15T07:55:13.146Z,10.07
2023-04-15T07:56:13.139Z,9.92
2023-04-15T07:57:13.133Z,9.92
2023-04-15T07:58:13.134Z,9.98
2023-04-15T07:59:13.132Z,9.99
2023-04-15T08:00:13.123Z,9.95
2023-04-15T08:01:13.117Z,10.05
2023-04-15T08:02:13.164Z,10.01
2023-04-15T08:03:13.290Z,9.99
2023-04-15T08:04:13.331Z,10.01
2023-04-15T08:05:13.176Z,9.95
2023-04-15T08:06:13.095Z,9.95
2023-04-15T08:07:13.088Z,9.98
2023-04-15T08:08:13.088Z,9.99
2023-04-15T08:09:13.082Z,9.99
2023-04-15T08:10:13.097Z,9.87
2023-04-15T08:11:13.074Z,9.87
2023-04-15T08:12:13.072Z,9.94
2023-04-15T08:13:13.069Z,9.91
2023-04-15T08:14:13.061Z,9.92
2023-04-15T08:15:13.072Z,9.97
2023-04-15T08:16:13.096Z,9.99
2023-04-15T08:17:13.051Z,9.92
2023-04-15T08:18:13.045Z,10.07
2023-04-15T08:19:13.044Z,10.07
2023-04-15T08:20:13.031Z,10.13
2023-04-15T08:21:13.030Z,10.15
2023-04-15T08:22:17.586Z,10.17
2023-04-15T08:23:13.020Z,10.22
2023-04-15T08:24:13.056Z,10.13
2023-04-15T08:25:13.014Z,10.26
2023-04-15T08:26:13.032Z,10.30
2023-04-15T08:27:13.001Z,10.31
2023-04-15T08:28:13.011Z,10.37
2023-04-15T08:29:13.024Z,10.26
2023-04-15T08:30:12.993Z,10.34
2023-04-15T08:31:13.020Z,10.37
2023-04-15T08:32:13.011Z,10.35
2023-04-15T08:33:12.982Z,10.33
2023-04-15T08:34:12.977Z,10.20
2023-04-15T08:35:12.970Z,10.23
2023-04-15T08:36:12.971Z,10.23
2023-04-15T08:37:12.968Z,10.33
2023-04-15T08:38:12.967Z,10.33
2023-04-15T08:39:12.958Z,10.33
2023-04-15T08:40:12.950Z,10.23
2023-04-15T08:41:12.948Z,10.26
2023-04-15T08:42:12.959Z,10.22
2023-04-15T08:43:12.939Z,10.23
2023-04-15T08:44:12.937Z,10.19
2023-04-15T08:45:12.931Z,10.07
2023-04-15T08:46:12.928Z,10.10
2023-04-15T08:47:12.933Z,10.02
2023-04-15T08:48:12.919Z,10.04
2023-04-15T08:49:12.920Z,10.04
2023-04-15T08:50:12.915Z,10.01
2023-04-15T08:51:12.909Z,10.05
2023-04-15T08:52:12.907Z,10.05
2023-04-15T08:53:12.901Z,10.04
2023-04-15T08:54:12.912Z,9.98
2023-04-15T08:55:12.913Z,9.98
2023-04-15T08:56:12.887Z,10.02
2023-04-15T08:57:12.882Z,10.07
2023-04-15T08:58:12.924Z,10.07
2023-04-15T08:59:12.877Z,10.01
2023-04-15T09:00:12.884Z,10.04
2023-04-15T09:01:12.886Z,10.13
2023-04-15T09:02:12.905Z,10.15
2023-04-15T09:03:13.008Z,10.16
2023-04-15T09:04:12.970Z,10.12
2023-04-15T09:05:12.853Z,10.20
2023-04-15T09:06:12.868Z,10.22
2023-04-15T09:07:12.839Z,10.17
2023-04-15T09:08:12.913Z,10.17
2023-04-15T09:09:12.837Z,10.23
2023-04-15T09:10:12.828Z,10.28
2023-04-15T09:11:12.826Z,10.34
2023-04-15T09:12:12.818Z,10.22
2023-04-15T09:13:12.811Z,10.31
2023-04-15T09:14:12.824Z,10.23
2023-04-15T09:15:12.801Z,10.22
2023-04-15T09:16:12.824Z,10.19
2023-04-15T09:17:12.793Z,10.17
2023-04-15T09:18:12.785Z,10.33
2023-04-15T09:19:12.782Z,10.30
2023-04-15T09:20:12.777Z,10.28
2023-04-15T09:21:12.787Z,10.30
2023-04-15T09:22:12.778Z,10.26
2023-04-15T09:23:12.763Z,10.34
2023-04-15T09:24:12.759Z,10.42
2023-04-15T09:25:12.753Z,10.35
2023-04-15T09:26:12.746Z,10.41
2023-04-15T09:27:12.745Z,10.38
2023-04-15T09:28:12.737Z,10.30
2023-04-15T09:29:12.733Z,10.33
2023-04-15T09:30:12.752Z,10.30
2023-04-15T09:31:12.764Z,10.23
2023-04-15T09:32:12.717Z,10.26
2023-04-15T09:33:12.712Z,10.34
2023-04-15T09:34:12.709Z,10.40
2023-04-15T09:35:12.709Z,10.48
2023-04-15T09:36:12.703Z,10.54
2023-04-15T09:37:15.127Z,10.56
2023-04-15T09:38:12.688Z,10.69
2023-04-15T09:39:12.691Z,10.64
2023-04-15T09:40:12.690Z,10.57
2023-04-15T09:41:12.677Z,10.71
2023-04-15T09:42:12.668Z,10.76
2023-04-15T09:43:12.671Z,10.76
2023-04-15T09:44:12.665Z,10.79
2023-04-15T09:45:12.665Z,10.72
2023-04-15T09:46:12.706Z,10.71
2023-04-15T09:47:12.651Z,10.69
2023-04-15T09:48:12.641Z,10.75
2023-04-15T09:49:12.666Z,10.82
2023-04-15T09:50:12.641Z,10.93
2023-04-15T09:51:12.641Z,10.93
2023-04-15T09:52:12.623Z,10.92
2023-04-15T09:53:12.638Z,10.94
2023-04-15T09:54:12.619Z,11.10
2023-04-15T09:55:12.618Z,11.14
2023-04-15T09:56:12.611Z,11.11
2023-04-15T09:57:12.602Z,11.07
2023-04-15T09:58:12.639Z,11.15
2023-04-15T09:59:12.596Z,11.17
2023-04-15T10:00:12.647Z,11.27
2023-04-15T10:01:12.607Z,11.29
2023-04-15T10:02:12.726Z,11.33
2023-04-15T10:03:12.658Z,11.44
2023-04-15T10:04:12.659Z,11.29
2023-04-15T10:05:12.570Z,11.19
2023-04-15T10:06:12.573Z,11.22
2023-04-15T10:07:12.562Z,11.04
2023-04-15T10:08:12.553Z,11.10
2023-04-15T10:09:12.550Z,11.12
2023-04-15T10:10:12.549Z,11.10
2023-04-15T10:11:12.540Z,11.10
2023-04-15T10:12:12.553Z,11.04
2023-04-15T10:13:12.538Z,11.18
2023-04-15T10:14:12.538Z,11.12
2023-04-15T10:15:12.524Z,11.10
2023-04-15T10:16:12.549Z,11.00
2023-04-15T10:17:12.517Z,11.00
2023-04-15T10:18:12.530Z,10.99
2023-04-15T10:19:12.511Z,10.94
2023-04-15T10:20:12.529Z,11.10
2023-04-15T10:21:12.501Z,11.00
2023-04-15T10:22:12.489Z,10.96
2023-04-15T10:23:13.449Z,10.99
2023-04-15T10:24:12.481Z,10.99
2023-04-15T10:25:12.476Z,10.89
2023-04-15T10:26:12.484Z,10.93
2023-04-15T10:27:12.475Z,11.00
2023-04-15T10:28:12.460Z,11.00
2023-04-15T10:29:12.468Z,10.92
2023-04-15T10:30:12.470Z,10.90
2023-04-15T10:31:12.492Z,10.87
2023-04-15T10:32:12.450Z,10.93
2023-04-15T10:33:12.440Z,10.94
2023-04-15T10:34:12.468Z,10.96
2023-04-15T10:35:12.445Z,10.93
2023-04-15T10:36:12.440Z,10.99
2023-04-15T10:37:12.422Z,10.97
2023-04-15T10:38:12.414Z,11.07
2023-04-15T10:39:12.411Z,11.05
2023-04-15T10:40:12.414Z,11.10
2023-04-15T10:41:12.402Z,11.05
2023-04-15T10:42:12.403Z,10.96
2023-04-15T10:43:12.391Z,10.90
2023-04-15T10:44:12.403Z,11.00
2023-04-15T10:45:12.390Z,10.99
2023-04-15T10:46:12.400Z,10.93
2023-04-15T10:47:12.372Z,11.04
2023-04-15T10:48:12.438Z,11.04
2023-04-15T10:49:12.374Z,11.02
2023-04-15T10:50:12.377Z,11.17
2023-04-15T10:51:12.363Z,11.11
2023-04-15T10:52:12.355Z,11.17
2023-04-15T10:53:12.349Z,11.12
2023-04-15T10:54:12.339Z,11.12
2023-04-15T10:55:12.338Z,11.17
2023-04-15T10:56:12.332Z,11.10
2023-04-15T10:57:12.330Z,11.07
2023-04-15T10:58:12.327Z,10.97
2023-04-15T10:59:12.326Z,10.97
2023-04-15T11:00:12.668Z,10.97
2023-04-15T11:01:12.312Z,10.99
2023-04-15T11:02:12.412Z,10.90
2023-04-15T11:03:12.421Z,10.90
2023-04-15T11:04:12.427Z,10.90
2023-04-15T11:05:12.294Z,10.86
2023-04-15T11:06:12.307Z,10.89
2023-04-15T11:07:12.286Z,10.76
2023-04-15T11:08:12.276Z,10.79
2023-04-15T11:09:12.270Z,10.72
2023-04-15T11:10:12.306Z,10.79
2023-04-15T11:11:12.258Z,10.82
2023-04-15T11:12:12.259Z,10.82
2023-04-15T11:13:12.252Z,10.84
2023-04-15T11:14:12.248Z,10.87
2023-04-15T11:15:12.256Z,10.84
2023-04-15T11:16:12.241Z,10.81
2023-04-15T11:17:12.231Z,10.81
2023-04-15T11:18:12.271Z,10.71
2023-04-15T11:19:12.222Z,10.79
2023-04-15T11:20:12.253Z,10.76
2023-04-15T11:21:12.226Z,10.78
2023-04-15T11:22:12.226Z,10.89
2023-04-15T11:23:15.302Z,10.87
2023-04-15T11:24:12.218Z,10.84
2023-04-15T11:25:12.193Z,10.89
2023-04-15T11:26:12.587Z,11.10
2023-04-15T11:27:12.186Z,11.02
2023-04-15T11:28:12.253Z,10.94
2023-04-15T11:29:12.177Z,10.81
2023-04-15T11:30:12.213Z,10.86
2023-04-15T11:31:12.242Z,10.71
2023-04-15T11:32:12.211Z,10.69
2023-04-15T11:33:12.237Z,10.60
2023-04-15T11:34:12.150Z,10.53
2023-04-15T11:35:12.148Z,10.63
2023-04-15T11:36:12.142Z,10.64
2023-04-15T11:37:12.137Z,10.68
2023-04-15T11:38:12.220Z,10.72
2023-04-15T11:39:12.130Z,10.72
2023-04-15T11:40:12.131Z,10.69
2023-04-15T11:41:12.121Z,10.81
2023-04-15T11:42:12.114Z,10.84
2023-04-15T11:43:12.116Z,10.87
2023-04-15T11:44:12.105Z,11.10
2023-04-15T11:45:12.103Z,11.07
2023-04-15T11:46:12.129Z,10.99
2023-04-15T11:47:12.093Z,11.04
2023-04-15T11:48:12.104Z,11.04
2023-04-15T11:49:12.085Z,11.10
2023-04-15T11:50:12.085Z,11.15
2023-04-15T11:51:12.075Z,11.12
2023-04-15T11:52:12.069Z,11.19
2023-04-15T11:53:12.067Z,11.35
2023-04-15T11:54:12.079Z,11.26
2023-04-15T11:55:12.062Z,11.33
2023-04-15T11:56:12.074Z,11.32
2023-04-15T11:57:12.047Z,11.27
2023-04-15T11:58:12.836Z,11.22
2023-04-15T11:59:12.038Z,11.17
2023-04-15T12:00:12.030Z,11.15
2023-04-15T12:01:12.027Z,10.99
2023-04-15T12:02:12.110Z,11.00
2023-04-15T12:03:12.277Z,10.97
2023-04-15T12:04:12.184Z,10.87
2023-04-15T12:05:12.066Z,10.81
2023-04-15T12:06:12.004Z,10.71
2023-04-15T12:07:12.000Z,10.68
2023-04-15T12:08:11.993Z,10.68
2023-04-15T12:09:11.985Z,10.63
2023-04-15T12:10:12.128Z,10.63
2023-04-15T12:11:11.978Z,10.61
2023-04-15T12:12:11.984Z,10.61
2023-04-15T12:13:11.980Z,10.59
2023-04-15T12:14:11.964Z,10.53
2023-04-15T12:15:11.965Z,10.61
2023-04-15T12:16:12.000Z,10.63
2023-04-15T12:17:11.961Z,10.49
2023-04-15T12:18:12.042Z,10.57
2023-04-15T12:19:11.945Z,10.59
2023-04-15T12:20:11.946Z,10.67
2023-04-15T12:21:11.936Z,10.63
2023-04-15T12:22:11.937Z,10.63
2023-04-15T12:23:11.926Z,10.64
2023-04-15T12:24:11.914Z,10.60
2023-04-15T12:25:11.913Z,10.64
2023-04-15T12:26:11.924Z,10.74
2023-04-15T12:27:11.905Z,10.68
2023-04-15T12:28:11.904Z,10.60
2023-04-15T12:29:11.897Z,10.69
2023-04-15T12:30:11.901Z,10.71
2023-04-15T12:31:11.911Z,10.68
2023-04-15T12:32:11.939Z,10.69
2023-04-15T12:33:11.881Z,10.76
2023-04-15T12:34:11.873Z,10.74
2023-04-15T12:35:11.878Z,10.69
2023-04-15T12:36:11.873Z,10.67
2023-04-15T12:37:11.860Z,10.63
2023-04-15T12:38:11.851Z,10.68
2023-04-15T12:39:11.852Z,10.59
2023-04-15T12:40:11.848Z,10.53
2023-04-15T12:41:11.840Z,10.49
2023-04-15T12:42:11.854Z,10.54
2023-04-15T12:43:11.830Z,10.51
2023-04-15T12:44:11.831Z,10.49
2023-04-15T12:45:11.821Z,10.51
2023-04-15T12:46:11.837Z,10.37
2023-04-15T12:47:11.810Z,10.44
2023-04-15T12:48:11.806Z,10.44
2023-04-15T12:49:11.800Z,10.40
2023-04-15T12:50:11.806Z,10.41
2023-04-15T12:51:11.789Z,10.38
2023-04-15T12:52:11.785Z,10.44
2023-04-15T12:53:11.782Z,10.42
2023-04-15T12:54:11.780Z,10.41
2023-04-15T12:55:11.776Z,10.40
2023-04-15T12:56:11.772Z,10.38
2023-04-15T12:57:11.766Z,10.31
2023-04-15T12:58:11.786Z,10.35
2023-04-15T12:59:11.756Z,10.23
2023-04-15T13:00:11.750Z,10.20
2023-04-15T13:01:12.200Z,10.28
2023-04-15T13:02:11.805Z,10.33
2023-04-15T13:03:11.832Z,10.26
2023-04-15T13:04:11.814Z,10.23
2023-04-15T13:05:11.724Z,10.23
2023-04-15T13:06:11.721Z,10.25
2023-04-15T13:07:11.716Z,10.22
2023-04-15T13:08:11.723Z,10.22
2023-04-15T13:09:11.704Z,10.25